Harlem, Pennsylvania
Current Conditions -  °F | °C
As of 3:10 PM on Monday 22 Dec 2014 (Local Time) from KPTW Reporting Station
Overcast Overcast  
Wind Chill: 38°   Ceiling: 8500
Heat Index: 42°   Visibility: 10mi
Dew Point: 32°   Wind: 6mph
Humidity: 67%   Direction: 70°ENE
Pressure: 30.2"   Gusts: NA
Location:  40.3877°N, 75.5817°W
Report Text: KPTW 222010Z AUTO 07005KT 10SM SCT024 OVC085 06/00 A3020 RMK AO2 T00560000
Loading
Personal Weather Stations






























Interactive Weather Map New forecast layout! Learn more

10-Day Weather Forecast

Advertisements
Track Severe Weather on mobile